Main page
METAR-TAF:

METAR-TAF

Airports :

Hanoi, Vietnam

Noi Bai International Airport

latitude: 21-01N, longitude: 105-48E, elevation: 6 m

Current weather observation

The report was made 36 minutes ago, at 08:00 UTC
Wind 4 kt from variable directions
Temperature 33°C
Humidity 39%
Pressure 1007 hPa
Visibility 10 km or more
no clouds below 1500 m and no cumulonimbus

METAR: VVNB 280800Z VRB04KT CAVOK 33/17 Q1007 NOSIG

Time: 15:36 (08:36 UTC)

Forecast

The report was made 3 hours and 36 minutes ago, at 05:00 UTC
Forecast valid from 28 at 06 UTC to 29 at 06 UTC
Wind 5 kt from the Northwest
Visibility 10 km or more
no clouds below 1500 m and no cumulonimbus
Becoming
from 28 at 11 UTC to 28 at 12 UTC
Wind 7 kt from the South/Southeast
Becoming
from 28 at 21 UTC to 28 at 22 UTC
Visibility: 4000 m
mist
Becoming
from 29 at 01 UTC to 29 at 02 UTC
Visibility: 8000 m

TAF: VVNB 280500Z 2806/2906 32005KT CAVOK BECMG 2811/2812 16007KT BECMG 2821/2822 4000 BR NSC BECMG 2901/2902 8000 NSW

Weather observations and forecasts of more than 4000 airports (METAR and TAF reports).

The available stations are represented by yellow and red dots on the map.

Hover mouse over dot to see the name of the station.

Then click to see weather observations and forecasts.

To change the map : click on the green buttons with a black cross to zoom in, on the green button with a dash to zoom out, or on the green arrows for adjacent maps.


METAR-TAF: